Search for airport 
image banner adimage banner adimage banner ad
image banner ad

A32 - Butte Valley

Located in Dorris, United States

ICAO - A32, IATA -

Data provided by Airmate  

General information

Coordinates: N41°53'14" W121°58'32"
Elevation is 4243 feet MSL.
Magnetic variation is 18° East
View others Airports in California

Operational data

Special qualification required
Current time UTC:
Current local time:
Weather at : KLMT - Crater Lake-Klamath Rgnl ( 36 km )
METAR: KLMT 150953Z AUTO 00000KT 10SM BKN042 BKN055 08/06 A3009 RMK AO2 SLP160 T00780056
TAF: KLMT 150549Z 1506/1606 27012KT P6SM SCT070 FM160000 33013G20KT P6SM FEW250
View NOTAMs / SUP AIP / TFR affecting this airport [VIEW]
Communications frequencies: [VIEW]

Runways:

RWY identifierQFULength (ft)Width (ft)SurfaceLDA (ft)
16179°430060ASPH
34359°430060ASPH

Airport contact information

Address: Dorris United States

Satellite view of A32